• Join FlightAware (Why Join?)
  • Login
  • US Flag 
11:04AM EDT


 

Airport Tracker/Info


-or-


 

Live Flight TrackerFlight Track Log ✈ XOJ552 ✈ 30-Jun-2013 ✈ KFOK - KOTH

Flight Track Log - Related Links

Times and Time Zones

All times are in EDT time to prevent confusion due to time zone crossing. See the XOJ552 flight status page for this flight to view local times or setup timezone preferences in your user account.

Time Position Orientation Groundspeed Altitude Reporting Facility
EDT Latitude Longitude Course Direction KTS MPH feet Rate Location/Type
07:46AM 40.8333 -72.6833 255° West 211 243 1,800  Level New York TRACON
07:47AM 40.8167 -72.7667 255° West 238 274 3,700 2,820 Climbing New York TRACON
07:48AM 40.8167 -72.8500 270° West 254 292 7,200 2,100 Climbing New York TRACON
07:49AM 40.8167 -72.9500 270° West 263 303 8,000 360 Climbing New York TRACON
07:50AM 40.8167 -73.0500 270° West 266 306 8,000  Level New York TRACON
07:51AM 40.8000 -73.1500 258° West 264 304 8,000 180 Level New York TRACON
07:52AM 40.8000 -73.2500 270° West 266 306 8,400 1,500 Climbing New York TRACON
07:53AM 40.8333 -73.3500 294° West 295 339 11,300 2,700 Climbing New York TRACON
07:54AM 40.8833 -73.4333 294° West 325 374 13,800 2,760 Climbing New York TRACON
07:55AM 40.9500 -73.5167 317° Northwest 335 386 16,300 1,560 Climbing New York TRACON
07:56AM 41.0167 -73.6333 307° West 355 409 17,000 180 Climbing New York TRACON
07:58AM 41.0414 -73.8825 278° West 403 464 17,000 360 Level New York Center
07:59AM 41.0603 -74.0319 280° West 384 442 18,100 1,740 Climbing New York Center
08:00AM 41.0794 -74.1622 281° West 373 429 20,500 2,100 Climbing New York Center
08:01AM 41.0906 -74.2867 277° West 368 423 22,400 2,040 Climbing New York Center
08:02AM 41.1050 -74.4225 278° West 373 429 24,700 2,100 Climbing New York Center
08:03AM 41.1217 -74.5583 279° West 379 436 26,700 1,980 Climbing New York Center
08:04AM 41.1419 -74.7025 281° West 385 443 28,700 1,860 Climbing New York Center
08:05AM 41.1997 -74.8411 299° West 406 467 30,400 1,560 Climbing New York Center
08:06AM 41.2594 -74.9772 300° West 415 478 31,900 1,320 Climbing New York Center
08:07AM 41.3192 -75.1161 300° West 427 491 33,100 1,320 Climbing New York Center
08:08AM 41.3764 -75.2525 299° West 432 497 34,500 1,380 Climbing New York Center
08:09AM 41.4378 -75.3922 300° West 432 497 35,900 1,440 Climbing New York Center
08:10AM 41.4886 -75.5314 296° West 432 497 37,500 1,500 Climbing New York Center
08:11AM 41.5322 -75.6869 291° West 418 481 39,000 1,200 Climbing New York Center
08:12AM 41.5689 -75.8033 293° West 395 455 40,000 780 Climbing New York Center
08:13AM 41.6069 -75.9367 291° West 395 455 40,600 480 Climbing New York Center
08:15AM 41.6831 -76.2175 290° West 402 463 41,600 480 Climbing Cleveland Center
08:16AM 41.7217 -76.3567 290° West 402 463 42,100 360 Climbing Cleveland Center
08:17AM 41.7619 -76.4933 292° West 402 463 42,400 300 Climbing Cleveland Center
08:18AM 41.8006 -76.6358 290° West 402 463 42,700 300 Climbing Cleveland Center
08:19AM 41.8406 -76.7756 291° West 402 463 43,000 120 Climbing Cleveland Center
08:20AM 41.8786 -76.9211 289° West 407 468 43,000  Level Cleveland Center
08:21AM 41.9186 -77.0669 290° West 407 468 43,000  Level Cleveland Center
08:22AM 41.9631 -77.2264 291° West 413 475 43,000  Level Cleveland Center
08:23AM 42.0028 -77.3725 290° West 418 481 43,000  Level Cleveland Center
08:24AM 42.0444 -77.5242 290° West 423 487 43,000  Level Cleveland Center
08:25AM 42.0836 -77.6733 290° West 423 487 43,000  Level Cleveland Center
08:26AM 42.1208 -77.8228 289° West 423 487 43,000  Level Cleveland Center
08:27AM 42.1619 -77.9781 290° West 423 487 43,000  Level Cleveland Center
08:28AM 42.2028 -78.1278 290° West 428 493 43,000  Level Cleveland Center
08:29AM 42.2433 -78.2833 289° West 428 493 43,000  Level Cleveland Center
08:30AM 42.2839 -78.4361 290° West 433 498 43,000  Level Cleveland Center
08:31AM 42.3222 -78.5894 289° West 439 505 43,000  Level Cleveland Center
08:32AM 42.3600 -78.7428 288° West 432 497 43,000  Level Cleveland Center
08:33AM 42.4000 -78.8989 289° West 432 497 43,000  Level Cleveland Center
08:34AM 42.4353 -79.0358 289° West 432 497 43,000  Level Cleveland Center
08:35AM 42.4769 -79.2067 288° West 438 504 43,000  Level Cleveland Center
08:36AM 42.5164 -79.3633 289° West 438 504 43,000  Level Cleveland Center
08:37AM 42.5533 -79.5206 288° West 438 504 43,000  Level Cleveland Center
08:38AM 42.5964 -79.6778 290° West 438 504 43,000  Level Cleveland Center
08:39AM 42.6328 -79.8325 288° West 438 504 43,000  Level Cleveland Center
08:40AM 42.6692 -79.9903 287° West 438 504 43,000  Level Cleveland Center
08:41AM 42.7075 -80.1508 288° West 438 504 43,000  Level Cleveland Center
08:42AM 42.7433 -80.3119 287° West 440 506 43,000  Level Cleveland Center
08:43AM 42.7769 -80.4531 288° West 447 514 43,000  Level Cleveland Center
08:44AM 42.8144 -80.6144 288° West 441 507 43,000  Level Cleveland Center
08:45AM 42.8500 -80.8667 281° West 440 506 43,000  Level Toronto Center
08:46AM 42.8833 -81.0167 287° West 450 518 43,000  Level Toronto Center
08:47AM 42.9333 -81.1833 292° West 450 518 43,000  Level Toronto Center
08:48AM 42.9667 -81.3500 285° West 450 518 43,000  Level Toronto Center
08:49AM 43.0167 -81.5000 295° West 450 518 43,000  Level Toronto Center
08:50AM 43.0500 -81.6667 285° West 450 518 43,000  Level Toronto Center
08:51AM 43.0833 -81.8500 284° West 450 518 43,000  Level Toronto Center
08:52AM 43.1167 -81.9833 289° West 450 518 43,000  Level Toronto Center
08:53AM 43.1500 -82.1667 284° West 450 518 43,000  Level Toronto Center
08:54AM 43.1833 -82.3333 285° West 450 518 43,000  Level Toronto Center
08:55AM 43.2333 -82.5000 292° West 460 529 43,000  Level Toronto Center
08:56AM 43.2500 -82.6500 279° West 460 529 43,000  Level Toronto Center
08:57AM 43.3000 -82.8167 292° West 460 529 43,000  Level Toronto Center
08:58AM 43.3333 -83.0000 284° West 460 529 43,000  Level Toronto Center
08:59AM 43.3667 -83.1667 285° West 460 529 43,000  Level Toronto Center
09:00AM 43.4000 -83.3500 284° West 460 529 43,000  Level Toronto Center
09:01AM 43.4333 -83.5167 285° West 460 529 43,000  Level Toronto Center
09:02AM 43.4833 -83.6833 293° West 460 529 43,000  Level Toronto Center
09:03AM 43.4925 -83.7447 282° West 463 533 43,000  Level Minneapolis Center
09:04AM 43.5347 -83.9492 286° West 464 534 43,000  Level Minneapolis Center
09:05AM 43.5681 -84.1194 285° West 463 533 43,000  Level Minneapolis Center
09:06AM 43.6025 -84.2886 286° West 462 532 43,000  Level Minneapolis Center
09:07AM 43.6361 -84.4603 285° West 464 534 43,000  Level Minneapolis Center
09:08AM 43.6689 -84.6311 285° West 464 534 43,000  Level Minneapolis Center
09:09AM 43.7025 -84.8014 285° West 462 532 43,000  Level Minneapolis Center
09:10AM 43.7414 -85.0061 285° West 462 532 43,000  Level Minneapolis Center
09:11AM 43.7728 -85.1764 284° West 461 531 43,000  Level Minneapolis Center
09:12AM 43.8056 -85.3469 285° West 461 531 43,000  Level Minneapolis Center
09:13AM 43.8372 -85.5186 284° West 463 533 43,000  Level Minneapolis Center
09:14AM 43.8681 -85.6897 284° West 461 531 43,000  Level Minneapolis Center
09:15AM 43.9003 -85.8617 285° West 464 534 43,000  Level Minneapolis Center
09:16AM 43.9322 -86.0358 284° West 468 539 43,000  Level Minneapolis Center
09:17AM 43.9631 -86.2078 284° West 465 535 43,000  Level Minneapolis Center
09:18AM 43.9997 -86.4186 284° West 470 541 43,000  Level Minneapolis Center
09:19AM 44.0294 -86.5944 283° West 472 543 43,000  Level Minneapolis Center
09:20AM 44.0594 -86.7694 283° West 471 542 43,000  Level Minneapolis Center
09:21AM 44.0964 -86.9817 284° West 473 544 43,000  Level Minneapolis Center
09:22AM 44.1264 -87.1578 283° West 471 542 43,000  Level Minneapolis Center
09:23AM 44.1603 -87.3592 283° West 469 540 43,000  Level Minneapolis Center
09:24AM 44.1883 -87.5361 283° West 469 540 43,000  Level Minneapolis Center
09:25AM 44.2183 -87.7128 283° West 470 541 43,000  Level Minneapolis Center
09:26AM 44.2478 -87.8917 283° West 473 544 43,000  Level Minneapolis Center
09:27AM 44.2744 -88.0675 282° West 466 536 43,000  Level Minneapolis Center
09:28AM 44.3022 -88.2436 282° West 467 537 43,000  Level Minneapolis Center
09:29AM 44.3289 -88.4175 282° West 460 529 43,000  Level Minneapolis Center
09:30AM 44.3594 -88.6206 282° West 459 528 43,000  Level Minneapolis Center
09:31AM 44.3864 -88.7978 282° West 465 535 43,000  Level Minneapolis Center
09:33AM 44.4125 -88.9750 282° West 468 539 43,000  Level Minneapolis Center
09:34AM 44.4386 -89.1517 282° West 466 536 43,000  Level Minneapolis Center
09:35AM 44.4650 -89.3281 282° West 464 534 43,000  Level Minneapolis Center
09:36AM 44.4911 -89.5028 282° West 461 531 43,000  Level Minneapolis Center
09:37AM 44.5128 -89.6481 282° West 461 531 43,000  Level Minneapolis Center
09:38AM 44.5500 -89.9114 281° West 460 529 43,000  Level Minneapolis Center
09:39AM 44.5747 -90.0878 281° West 461 531 43,000  Level Minneapolis Center
09:40AM 44.6031 -90.2933 281° West 460 529 43,000  Level Minneapolis Center
09:41AM 44.6269 -90.4711 281° West 463 533 43,000  Level Minneapolis Center
09:42AM 44.6544 -90.6725 281° West 461 531 43,000  Level Minneapolis Center
09:43AM 44.6781 -90.8494 281° West 464 534 43,000  Level Minneapolis Center
09:44AM 44.7017 -91.0256 281° West 461 531 43,000  Level Minneapolis Center
09:45AM 44.7272 -91.2381 280° West 462 532 43,000  Level Minneapolis Center
09:46AM 44.7508 -91.4161 281° West 463 533 43,000  Level Minneapolis Center
09:47AM 44.7736 -91.5919 280° West 462 532 43,000  Level Minneapolis Center
09:49AM 44.7983 -91.7686 281° West 462 532 43,000  Level Minneapolis Center
09:50AM 44.8244 -91.9831 280° West 465 535 43,000  Level Minneapolis Center
09:51AM 44.8500 -92.1956 280° West 463 533 43,000  Level Minneapolis Center
09:52AM 44.8719 -92.3731 280° West 463 533 43,000  Level Minneapolis Center
09:53AM 44.8914 -92.5508 279° West 463 533 43,000  Level Minneapolis Center
09:54AM 44.9114 -92.7272 279° West 461 531 43,000  Level Minneapolis Center
09:55AM 44.9328 -92.9008 280° West 456 525 43,000  Level Minneapolis Center
09:56AM 44.9567 -93.1108 279° West 460 529 43,000  Level Minneapolis Center
09:57AM 44.9761 -93.2861 279° West 462 532 43,000  Level Minneapolis Center
09:58AM 44.9950 -93.4622 279° West 463 533 43,000  Level Minneapolis Center
09:59AM 45.0136 -93.6403 278° West 463 533 43,000  Level Minneapolis Center
10:00AM 45.0322 -93.8189 278° West 463 533 43,000  Level Minneapolis Center
10:01AM 45.0539 -94.0333 278° West 463 533 43,000  Level Minneapolis Center
10:02AM 45.0728 -94.2136 279° West 466 536 43,000  Level Minneapolis Center
10:03AM 45.0908 -94.3928 278° West 465 535 43,000  Level Minneapolis Center
10:04AM 45.1122 -94.6083 278° West 463 533 43,000  Level Minneapolis Center
10:05AM 45.1317 -94.7978 278° West 468 539 43,000  Level Minneapolis Center
10:06AM 45.1494 -94.9778 278° West 466 536 43,000  Level Minneapolis Center
10:07AM 45.1647 -95.1592 277° West 467 537 43,000  Level Minneapolis Center
10:08AM 45.1847 -95.3756 278° West 465 535 43,000  Level Minneapolis Center
10:10AM 45.2017 -95.5556 278° West 465 535 43,000  Level Minneapolis Center
10:11AM 45.2200 -95.7706 277° West 462 532 43,000  Level Minneapolis Center
10:12AM 45.2364 -95.9500 277° West 462 532 43,000  Level Minneapolis Center
10:13AM 45.2522 -96.1286 277° West 460 529 43,000  Level Minneapolis Center
10:14AM 45.2664 -96.3083 276° West 461 531 43,000  Level Minneapolis Center
10:15AM 45.2847 -96.5228 277° West 461 531 43,000  Level Minneapolis Center
10:16AM 45.2972 -96.6983 276° West 453 521 43,000  Level Minneapolis Center
10:17AM 45.3122 -96.8744 277° West 452 520 43,000  Level Minneapolis Center
10:18AM 45.3258 -97.0511 276° West 452 520 43,000  Level Minneapolis Center
10:19AM 45.3392 -97.2289 276° West 454 522 43,000  Level Minneapolis Center
10:20AM 45.3517 -97.4058 276° West 453 521 43,000  Level Minneapolis Center
10:21AM 45.3672 -97.6181 276° West 452 520 43,000  Level Minneapolis Center
10:22AM 45.3800 -97.7931 276° West 448 516 43,000  Level Minneapolis Center
10:23AM 45.3936 -98.0033 275° West 447 514 43,000  Level Minneapolis Center
10:24AM 45.4053 -98.1725 276° West 444 511 43,000  Level Minneapolis Center
10:25AM 45.4181 -98.3478 276° West 446 513 43,000  Level Minneapolis Center
10:26AM 45.4475 -98.5514 282° West 441 507 43,000  Level Minneapolis Center
10:27AM 45.4756 -98.7208 283° West 440 506 43,000  Level Minneapolis Center
10:28AM 45.5031 -98.8914 283° West 443 510 43,000  Level Minneapolis Center
10:29AM 45.5289 -99.0625 282° West 443 510 43,000  Level Minneapolis Center
10:31AM 45.5564 -99.2333 283° West 443 510 43,000  Level Minneapolis Center
10:32AM 45.5828 -99.4064 282° West 447 514 43,000  Level Minneapolis Center
10:33AM 45.6147 -99.6136 282° West 448 516 43,000  Level Minneapolis Center
10:34AM 45.6406 -99.7883 282° West 451 519 43,000  Level Minneapolis Center
10:35AM 45.6667 -99.9622 282° West 451 519 43,000  Level Minneapolis Center
10:36AM 45.6911 -100.1331 282° West 446 513 43,000  Level Minneapolis Center
10:37AM 45.7172 -100.3064 282° West 447 514 43,000  Level Minneapolis Center
10:38AM 45.7511 -100.5511 281° West 450 518 43,000  Level Minneapolis Center
10:39AM 45.7753 -100.7247 281° West 448 516 43,000  Level Minneapolis Center
10:40AM 45.8000 -100.8989 282° West 448 516 43,000  Level Minneapolis Center
10:41AM 45.8244 -101.0731 281° West 448 516 43,000  Level Minneapolis Center
10:42AM 45.8486 -101.2497 281° West 451 519 43,000  Level Minneapolis Center
10:43AM 45.8728 -101.4250 281° West 450 518 43,000  Level Minneapolis Center
10:44AM 45.9017 -101.6364 281° West 451 519 43,000  Level Minneapolis Center
10:45AM 45.9233 -101.8142 280° West 452 520 43,000  Level Minneapolis Center
10:46AM 45.9478 -101.9886 281° West 449 517 43,000  Level Minneapolis Center
10:47AM 45.9703 -102.1650 280° West 449 517 43,000  Level Minneapolis Center
10:48AM 45.9964 -102.3739 280° West 446 513 43,000  Level Minneapolis Center
10:50AM 46.0172 -102.5475 280° West 443 510 43,000  Level Minneapolis Center
10:51AM 46.0408 -102.7342 280° West 441 507 43,000  Level Minneapolis Center
10:52AM 46.0617 -102.9069 280° West 440 506 43,000  Level Minneapolis Center
10:53AM 46.0822 -103.0811 280° West 441 507 43,000  Level Minneapolis Center
10:54AM 46.1011 -103.2522 279° West 439 505 43,000  Level Salt Lake Center
10:55AM 46.1200 -103.4208 279° West 435 501 43,000  Level Salt Lake Center
10:56AM 46.1444 -103.6208 280° West 424 488 43,000  Level Minneapolis Center
10:57AM 46.1628 -103.7878 279° West 421 484 43,000  Level Minneapolis Center
10:58AM 46.1797 -103.9564 278° West 425 489 43,000  Level Salt Lake Center
10:59AM 46.1975 -104.1242 279° West 425 489 43,000  Level Salt Lake Center
11:00AM 46.2161 -104.2928 279° West 425 489 43,000  Level Salt Lake Center
11:01AM 46.2339 -104.4628 279° West 425 489 43,000  Level Salt Lake Center
11:02AM 46.2553 -104.6678 279° West 427 491 43,000  Level Salt Lake Center
11:03AM 46.2722 -104.8356 278° West 427 491 43,000  Level Salt Lake Center
11:04AM 46.2894 -105.0075 278° West 429 494 43,000  Level Salt Lake Center
11:05AM 46.3067 -105.1792 278° West 429 494 43,000  Level Salt Lake Center
11:06AM 46.3236 -105.3511 278° West 431 496 43,000  Level Salt Lake Center
11:07AM 46.3256 -105.5256 271° West 436 502 43,000  Level Salt Lake Center
11:08AM 46.3150 -105.6972 265° West 433 498 43,000  Level Salt Lake Center
11:09AM 46.3050 -105.9058 266° West 433 498 43,000  Level Salt Lake Center
11:10AM 46.2953 -106.0789 265° West 433 498 43,000  Level Salt Lake Center
11:11AM 46.2853 -106.2469 265° West 429 494 43,000  Level Salt Lake Center
11:12AM 46.2753 -106.4161 265° West 426 490 43,000  Level Salt Lake Center
11:13AM 46.2642 -106.5850 265° West 425 489 43,000  Level Salt Lake Center
11:14AM 46.2528 -106.7519 264° West 423 487 43,000  Level Salt Lake Center
11:15AM 46.2400 -106.9525 265° West 421 484 43,000  Level Salt Lake Center
11:16AM 46.2306 -107.1242 266° West 423 487 43,000  Level Salt Lake Center
11:17AM 46.2189 -107.2944 264° West 415 478 43,000  Level Salt Lake Center
11:18AM 46.2069 -107.4731 265° West 421 484 43,000  Level Salt Lake Center
11:19AM 46.1947 -107.6383 264° West 420 483 43,000  Level Salt Lake Center
11:20AM 46.1819 -107.8178 264° West 419 482 43,000  Level Salt Lake Center
11:22AM 46.1700 -107.9842 264° West 421 484 43,000  Level Salt Lake Center
11:23AM 46.1561 -108.1639 264° West 422 486 43,000  Level Salt Lake Center
11:24AM 46.1428 -108.3425 264° West 421 484 43,000  Level Salt Lake Center
11:25AM 46.1300 -108.5083 264° West 422 486 43,000  Level Salt Lake Center
11:26AM 46.1161 -108.6892 264° West 426 490 43,000  Level Salt Lake Center
11:27AM 46.1019 -108.8553 263° West 425 489 43,000  Level Salt Lake Center
11:28AM 46.0861 -109.0358 263° West 425 489 43,000  Level Salt Lake Center
11:29AM 46.0717 -109.2025 263° West 426 490 43,000  Level Salt Lake Center
11:30AM 46.0558 -109.3819 263° West 423 487 43,000  Level Salt Lake Center
11:31AM 46.0400 -109.5633 263° West 426 490 43,000  Level Salt Lake Center
11:32AM 46.0250 -109.7292 263° West 426 490 43,000  Level Salt Lake Center
11:33AM 46.0067 -109.9056 262° West 422 486 43,000  Level Salt Lake Center
11:34AM 45.9911 -110.0672 262° West 425 489 43,000  Level Salt Lake Center
11:35AM 45.9736 -110.2572 263° West 427 491 43,000  Level Salt Lake Center
11:36AM 45.9578 -110.4186 262° West 428 493 43,000  Level Salt Lake Center
11:37AM 45.9403 -110.5978 262° West 426 490 43,000  Level Salt Lake Center
11:38AM 45.9244 -110.7642 262° West 421 484 43,000  Level Salt Lake Center
11:39AM 45.9078 -110.9300 262° West 422 486 43,000  Level Salt Lake Center
11:40AM 45.8928 -111.0942 263° West 423 487 43,000  Level Salt Lake Center
11:41AM 45.8728 -111.2947 262° West 446 513 43,000  Level Salt Lake Center
11:42AM 45.8531 -111.4581 260° West 425 489 43,000  Level Salt Lake Center
11:43AM 45.8342 -111.6214 261° West 419 482 43,000  Level Salt Lake Center
11:44AM 45.8161 -111.7858 261° West 420 483 43,000  Level Salt Lake Center
11:45AM 45.7978 -111.9497 261° West 418 481 43,000  Level Salt Lake Center
11:46AM 45.7758 -112.1439 261° West 415 478 43,000  Level Salt Lake Center
11:47AM 45.7567 -112.3078 261° West 416 479 43,000  Level Salt Lake Center
11:48AM 45.7378 -112.4711 261° West 417 480 43,000  Level Salt Lake Center
11:49AM 45.7186 -112.6369 261° West 422 486 43,000  Level Salt Lake Center
11:50AM 45.6983 -112.7997 260° West 418 481 43,000  Level Salt Lake Center
11:51AM 45.6789 -112.9639 260° West 419 482 43,000  Level Salt Lake Center
11:53AM 45.6592 -113.1264 260° West 417 480 43,000  Level Salt Lake Center
11:54AM 45.6350 -113.3233 260° West 420 483 43,000  Level Salt Lake Center
11:55AM 45.6142 -113.4872 260° West 419 482 43,000  Level Salt Lake Center
11:56AM 45.5964 -113.6436 261° West 420 483 43,000  Level Salt Lake Center
11:58AM 45.5517 -113.9856 260° West 423 487 43,000  Level Salt Lake Center
11:59AM 45.5281 -114.1664 260° West 418 481 43,000  Level Salt Lake Center
12:00PM 45.4992 -114.3758 259° West 422 486 43,000  Level Salt Lake Center
12:01PM 45.4792 -114.5308 260° West 418 481 43,000  Level Salt Lake Center
12:02PM 45.4547 -114.7103 259° West 416 479 43,000  Level Salt Lake Center
12:03PM 45.4333 -114.8667 259° West 419 482 43,000  Level Salt Lake Center
12:04PM 45.4119 -115.0211 259° West 418 481 43,000  Level Salt Lake Center
12:05PM 45.3894 -115.1769 258° West 418 481 43,000  Level Seattle Center
12:06PM 45.3647 -115.3550 259° West 416 479 43,000  Level Salt Lake Center
12:07PM 45.3389 -115.5356 259° West 417 480 43,000  Level Salt Lake Center
12:08PM 45.3200 -115.6644 258° West 417 480 43,000  Level Seattle Center
12:09PM 45.2972 -115.8172 258° West 416 479 43,000  Level Seattle Center
12:10PM 45.2672 -116.0206 258° West 415 478 43,000  Level Salt Lake Center
12:11PM 45.2400 -116.1992 258° West 416 479 43,000  Level Salt Lake Center
12:12PM 45.2169 -116.3525 258° West 417 480 43,000  Level Salt Lake Center
12:13PM 45.1964 -116.4825 257° West 421 484 43,000  Level Seattle Center
12:14PM 45.1725 -116.6364 258° West 421 484 43,000  Level Seattle Center
12:15PM 45.1489 -116.7892 258° West 418 481 43,000  Level Seattle Center
12:16PM 45.1189 -116.9700 257° West 423 487 43,000  Level Seattle Center
12:18PM 45.0828 -117.1994 258° West 420 483 43,000  Level Salt Lake Center
12:19PM 45.0583 -117.3514 257° West 415 478 43,000  Level Salt Lake Center
12:20PM 45.0292 -117.5294 257° West 418 481 43,000  Level Salt Lake Center
12:21PM 44.9864 -117.7822 257° West 418 481 43,000  Level Seattle Center
12:22PM 44.9617 -117.9336 257° West 415 478 43,000  Level Seattle Center
12:23PM 44.9314 -118.1119 257° West 417 480 43,000  Level Seattle Center
12:24PM 44.9056 -118.2692 257° West 414 476 43,000  Level Seattle Center
12:25PM 44.8939 -118.3331 256° West 414 476 43,000  Level Salt Lake Center
12:25PM 44.8769 -118.4264 256° West 415 478 43,000  Level Seattle Center
12:26PM 44.8500 -118.5844 257° West 414 476 43,000  Level Seattle Center
12:27PM 44.8222 -118.7411 256° West 413 475 43,000  Level Seattle Center
12:28PM 44.7956 -118.8986 257° West 413 475 43,000  Level Seattle Center
12:29PM 44.7686 -119.0542 256° West 411 473 43,000  Level Seattle Center
12:31PM 44.7228 -119.3044 256° West 411 473 43,000  Level Salt Lake Center
12:32PM 44.6944 -119.4611 256° West 412 474 43,000  Level Salt Lake Center
12:33PM 44.6647 -119.6175 255° West 413 475 43,000  Level Salt Lake Center
12:34PM 44.6339 -119.7733 255° West 411 473 43,000  Level Salt Lake Center
12:35PM 44.5944 -119.9247 250° West 409 471 43,000  Level Salt Lake Center
12:36PM 44.5492 -120.1078 251° West 411 473 43,000  Level Salt Lake Center
12:38PM 44.4964 -120.3172 251° West 409 471 43,000  Level Seattle Center
12:39PM 44.4611 -120.4656 252° West 413 475 43,000  Level Seattle Center
12:40PM 44.4219 -120.6142 250° West 408 470 43,000  Level Seattle Center
12:42PM 44.3442 -120.9158 250° West 407 468 43,000  Level Seattle Center
12:43PM 44.3050 -121.0672 250° West 414 476 43,000  Level Seattle Center
12:44PM 44.2678 -121.2167 251° West 411 473 43,000 -60 Level Seattle Center
12:45PM 44.2267 -121.3650 249° West 409 471 42,900 -1,020 Descending Seattle Center
12:46PM 44.1878 -121.5125 250° West 406 467 41,000 -1,920 Descending Seattle Center
12:47PM 44.1486 -121.6586 250° West 404 465 39,000 -1,020 Descending Seattle Center
12:48PM 44.1128 -121.7914 249° West 369 425 39,000 -660 Level Seattle Center
12:50PM 44.0428 -122.0528 250° West 356 410 37,000 -1,440 Descending Seattle Center
12:51PM 43.9992 -122.2078 249° West 360 414 34,700 -2,100 Descending Seattle Center
12:53PM 43.9264 -122.4719 249° West 371 427 30,700 -1,980 Descending Seattle Center
12:54PM 43.8875 -122.6081 248° West 378 435 28,700 -2,100 Descending Seattle Center
12:55PM 43.8489 -122.7464 249° West 381 438 26,500 -2,400 Descending Seattle Center
12:56PM 43.8106 -122.8839 249° West 382 440 23,900 -2,520 Descending Seattle Center
12:57PM 43.7708 -123.0247 249° West 389 448 21,400 -2,460 Descending Seattle Center
12:58PM 43.7331 -123.1581 249° West 378 435 18,900 -2,460 Descending Seattle Center
12:59PM 43.7094 -123.2861 256° West 349 402 16,300 -2,280 Descending Seattle Center
01:00PM 43.6958 -123.4150 262° West 341 392 14,200 -1,860 Descending Seattle Center
01:01PM 43.6847 -123.5297 262° West 317 365 12,600 -1,680 Descending Seattle Center
01:02PM 43.6697 -123.6606 261° West 294 338 10,800 -1,620 Descending Seattle Center
01:03PM 43.6583 -123.7686 262° West 288 331 9,300 -1,560 Descending Seattle Center
01:04PM 43.6469 -123.8672 261° West 267 307 7,700 -1,620 Descending Seattle Center
01:05PM 43.6358 -123.9700 262° West 269 310 6,100 -1,560 Descending Seattle Center
01:06PM 43.6392 -124.0758 273° West 264 304 4,600 -1,320 Descending Seattle Center
01:07PM 43.6489 -124.1728 278° West 259 298 3,500 -900 Descending Seattle Center
01:08PM 43.6403 -124.2606 262° West 246 283 2,800 -360 Descending Seattle Center
01:09PM 43.6175 -124.3339 247° West 230 265 2,800  Level Seattle Center
01:10PM 43.5914 -124.4022 242° Southwest 225 259 2,800  Level Seattle Center
01:12PM 43.4673 -124.2917 235° Southwest  Level Estimated
01:19PM 43.4167 -124.2333 79° East  Level FlightAware Approximate
01:20PM 43.4169 -124.2470 79° East  Level Estimated
01:21PM 43.4169 -124.2470 79° East  Level Estimated
01:22PM 43.4169 -124.2470 79° East  Level Estimated
01:23PM 43.4169 -124.2470 79° East  Level Estimated
01:24PM 43.4169 -124.2470 79° East  Level Estimated